Time;durP1;ratioP1;P1;durP2;ratioP2;P2;SDS_P1;SDS_P2;PMS_P1;PMS_P2;Temp;Humidity;BMP_temperature;BMP_pressure;BME280_temperature;BME280_humidity;BME280_pressure;Samples;Min_cycle;Max_cycle;Signal;HPM_P1;HPM_P2
2023/09/29 00:02:59;;;;;;;4.03;2.57;;;;;;;;;;8284756;28;20049;-62
2023/09/29 00:06:59;;;;;;;4.55;2.60;;;;;;;;;;8293664;28;20275;-62
2023/09/29 00:10:59;;;;;;;3.10;2.45;;;;;;;;;;8279985;28;20087;-62
2023/09/29 00:15:00;;;;;;;3.17;2.50;;;;;;;;;;8290282;28;20131;-63
2023/09/29 00:19:00;;;;;;;4.85;2.30;;;;;;;;;;8288463;28;20033;-62
2023/09/29 00:23:01;;;;;;;5.82;2.75;;;;;;;;;;8286903;28;20084;-62
2023/09/29 00:27:01;;;;;;;3.88;2.72;;;;;;;;;;8289818;28;20065;-62
2023/09/29 00:31:02;;;;;;;7.60;2.88;;;;;;;;;;8288580;28;20980;-62
2023/09/29 00:35:04;;;;;;;4.30;2.75;;;;;;;;;;8290824;28;20089;-62
2023/09/29 00:39:07;;;;;;;7.53;2.75;;;;;;;;;;8291916;28;20025;-62
2023/09/29 00:43:08;;;;;;;7.45;3.05;;;;;;;;;;8288432;28;20099;-62
2023/09/29 00:47:09;;;;;;;5.78;2.70;;;;;;;;;;8290354;28;20093;-62
2023/09/29 00:51:09;;;;;;;4.05;2.85;;;;;;;;;;8288694;28;20736;-63
2023/09/29 00:55:11;;;;;;;3.53;2.80;;;;;;;;;;8290885;28;20033;-63
2023/09/29 00:59:11;;;;;;;6.43;3.10;;;;;;;;;;8288870;28;20333;-63
2023/09/29 01:03:14;;;;;;;4.63;2.55;;;;;;;;;;8285880;28;20041;-62
2023/09/29 01:07:15;;;;;;;5.07;2.80;;;;;;;;;;8286556;28;20186;-63
2023/09/29 01:11:16;;;;;;;5.57;2.63;;;;;;;;;;8285304;28;20082;-62
2023/09/29 01:15:19;;;;;;;3.55;2.60;;;;;;;;;;8285068;28;20025;-62
2023/09/29 01:19:20;;;;;;;4.00;2.47;;;;;;;;;;8288512;28;20017;-63
2023/09/29 01:23:20;;;;;;;6.68;2.53;;;;;;;;;;8291818;28;21009;-63
2023/09/29 01:27:20;;;;;;;4.25;2.35;;;;;;;;;;8287763;28;20021;-62
2023/09/29 01:31:20;;;;;;;3.30;2.55;;;;;;;;;;8289141;28;20061;-63
2023/09/29 01:35:24;;;;;;;3.92;2.42;;;;;;;;;;8289702;28;20029;-62
2023/09/29 01:39:25;;;;;;;4.25;2.90;;;;;;;;;;8288627;28;20028;-62
2023/09/29 01:43:26;;;;;;;3.88;2.70;;;;;;;;;;8284917;28;20042;-64
2023/09/29 01:47:26;;;;;;;4.82;2.50;;;;;;;;;;8286185;28;20160;-63
2023/09/29 01:51:29;;;;;;;3.15;2.38;;;;;;;;;;8287957;28;20021;-63
2023/09/29 01:55:30;;;;;;;3.55;2.30;;;;;;;;;;8288319;28;20855;-63
2023/09/29 01:59:31;;;;;;;4.00;2.47;;;;;;;;;;8284262;28;20142;-62
2023/09/29 02:03:31;;;;;;;3.75;2.45;;;;;;;;;;8285872;28;20044;-63
2023/09/29 02:07:31;;;;;;;4.13;2.65;;;;;;;;;;8284977;28;20029;-62
2023/09/29 02:11:31;;;;;;;8.90;3.08;;;;;;;;;;8278520;28;20032;-64
2023/09/29 02:15:34;;;;;;;4.43;2.58;;;;;;;;;;8286190;28;20132;-62
2023/09/29 02:19:35;;;;;;;4.65;2.65;;;;;;;;;;8286902;28;20090;-63
2023/09/29 02:23:38;;;;;;;3.53;2.53;;;;;;;;;;8287060;28;20108;-63
2023/09/29 02:27:38;;;;;;;4.07;2.50;;;;;;;;;;8287653;28;20029;-62
2023/09/29 02:31:38;;;;;;;4.55;2.70;;;;;;;;;;8285862;28;21034;-63
2023/09/29 02:35:38;;;;;;;6.85;2.80;;;;;;;;;;8285818;28;20036;-62
2023/09/29 02:39:38;;;;;;;4.38;2.75;;;;;;;;;;8286159;28;20025;-62
2023/09/29 02:43:39;;;;;;;6.47;2.60;;;;;;;;;;8286897;28;20045;-63
2023/09/29 02:47:39;;;;;;;7.72;3.00;;;;;;;;;;8283241;28;20172;-63
2023/09/29 02:51:39;;;;;;;5.80;2.83;;;;;;;;;;8286707;28;20025;-63
2023/09/29 02:55:40;;;;;;;4.82;2.88;;;;;;;;;;8287625;28;20021;-63
2023/09/29 02:59:40;;;;;;;5.20;2.75;;;;;;;;;;8284426;28;20025;-63
2023/09/29 03:03:44;;;;;;;8.75;2.78;;;;;;;;;;8281596;28;20037;-62
2023/09/29 03:07:44;;;;;;;8.02;2.70;;;;;;;;;;8283123;28;20033;-62
2023/09/29 03:11:44;;;;;;;8.80;2.90;;;;;;;;;;8285166;28;20036;-62
2023/09/29 03:15:44;;;;;;;4.50;2.95;;;;;;;;;;8285058;28;20072;-63
2023/09/29 03:19:45;;;;;;;6.20;3.00;;;;;;;;;;8281696;28;20060;-62
2023/09/29 03:23:45;;;;;;;6.05;2.72;;;;;;;;;;8283959;28;20036;-62
2023/09/29 03:27:45;;;;;;;4.10;3.00;;;;;;;;;;8280083;28;20017;-63
2023/09/29 03:31:46;;;;;;;4.37;3.03;;;;;;;;;;8283321;28;20030;-62
2023/09/29 03:35:47;;;;;;;5.03;2.85;;;;;;;;;;8281137;28;20316;-63
2023/09/29 03:39:50;;;;;;;5.43;2.92;;;;;;;;;;8283112;28;20057;-62
2023/09/29 03:43:51;;;;;;;4.78;3.00;;;;;;;;;;8285848;28;20099;-62
2023/09/29 03:47:52;;;;;;;5.78;2.60;;;;;;;;;;8282531;28;20152;-63
2023/09/29 03:51:52;;;;;;;5.50;3.15;;;;;;;;;;8281614;28;20800;-62
2023/09/29 03:55:52;;;;;;;8.23;3.05;;;;;;;;;;8282919;28;20024;-62
2023/09/29 03:59:53;;;;;;;4.05;2.60;;;;;;;;;;8283431;28;20099;-62
2023/09/29 04:03:54;;;;;;;6.03;2.83;;;;;;;;;;8280103;28;20120;-62
2023/09/29 04:07:54;;;;;;;7.65;3.20;;;;;;;;;;8283420;28;20080;-62
2023/09/29 04:11:55;;;;;;;5.57;2.92;;;;;;;;;;8282272;28;20735;-61
2023/09/29 04:15:55;;;;;;;5.20;2.50;;;;;;;;;;8276872;28;20049;-62
2023/09/29 04:19:55;;;;;;;4.80;3.13;;;;;;;;;;8280164;28;20054;-62
2023/09/29 04:23:56;;;;;;;4.57;3.10;;;;;;;;;;8285056;28;20028;-63
2023/09/29 04:27:57;;;;;;;5.90;2.70;;;;;;;;;;8288063;28;20021;-62
2023/09/29 04:31:57;;;;;;;4.80;2.95;;;;;;;;;;8289688;28;20044;-62
2023/09/29 04:35:57;;;;;;;4.65;2.80;;;;;;;;;;8288632;28;20024;-62
2023/09/29 04:39:57;;;;;;;4.70;2.92;;;;;;;;;;8284096;28;20025;-62
2023/09/29 04:43:59;;;;;;;9.02;3.03;;;;;;;;;;8287666;28;20043;-63
2023/09/29 04:48:00;;;;;;;4.82;2.95;;;;;;;;;;8286592;28;20120;-63
2023/09/29 04:52:00;;;;;;;4.28;2.88;;;;;;;;;;8283825;28;20025;-63
2023/09/29 04:56:00;;;;;;;9.95;3.03;;;;;;;;;;8289742;28;20036;-63
2023/09/29 05:00:01;;;;;;;3.78;2.75;;;;;;;;;;8286498;28;20065;-63
2023/09/29 05:04:01;;;;;;;4.03;2.55;;;;;;;;;;8287576;28;20041;-62
2023/09/29 05:08:01;;;;;;;3.63;2.55;;;;;;;;;;8289282;28;20127;-61
2023/09/29 05:12:01;;;;;;;6.53;3.20;;;;;;;;;;8285688;28;20035;-63
2023/09/29 05:16:01;;;;;;;4.13;3.15;;;;;;;;;;8285687;28;20547;-64
2023/09/29 05:20:02;;;;;;;4.78;2.92;;;;;;;;;;8286224;28;20029;-63
2023/09/29 05:24:03;;;;;;;5.75;3.20;;;;;;;;;;8284552;28;20025;-62
2023/09/29 05:28:03;;;;;;;2.92;2.63;;;;;;;;;;8282474;28;20017;-63
2023/09/29 05:32:03;;;;;;;10.93;3.50;;;;;;;;;;8296553;28;20029;-63
2023/09/29 05:36:04;;;;;;;10.32;3.22;;;;;;;;;;8291397;28;20496;-63
2023/09/29 05:40:04;;;;;;;4.68;3.15;;;;;;;;;;8289323;28;20029;-63
2023/09/29 05:44:05;;;;;;;5.85;3.72;;;;;;;;;;8284898;28;20113;-62
2023/09/29 05:48:06;;;;;;;5.53;3.70;;;;;;;;;;8283075;28;20045;-62
2023/09/29 05:52:06;;;;;;;4.93;3.53;;;;;;;;;;8286613;28;20032;-62
2023/09/29 05:56:09;;;;;;;6.82;3.60;;;;;;;;;;8283650;28;20025;-62
2023/09/29 06:00:13;;;;;;;9.68;3.55;;;;;;;;;;8282877;28;20067;-63
2023/09/29 06:04:13;;;;;;;;;;;;;;;;;;8283472;28;20849;-62
2023/09/29 06:08:13;;;;;;;8.48;3.40;;;;;;;;;;8285171;28;19912;-63
2023/09/29 06:12:13;;;;;;;5.05;3.38;;;;;;;;;;8286014;28;20039;-62
2023/09/29 06:16:13;;;;;;;9.20;3.88;;;;;;;;;;8287761;28;20047;-62
2023/09/29 06:20:14;;;;;;;6.40;4.07;;;;;;;;;;8286744;28;20025;-62
2023/09/29 06:24:14;;;;;;;5.50;3.83;;;;;;;;;;8283179;28;20083;-63
2023/09/29 06:28:14;;;;;;;6.20;3.38;;;;;;;;;;8280514;28;20021;-63
2023/09/29 06:32:14;;;;;;;5.68;3.28;;;;;;;;;;8273158;28;20082;-63
2023/09/29 06:36:15;;;;;;;7.07;3.10;;;;;;;;;;8281639;28;20541;-63
2023/09/29 06:40:15;;;;;;;5.80;2.80;;;;;;;;;;8280956;28;20033;-62
2023/09/29 06:44:15;;;;;;;2.50;2.30;;;;;;;;;;8280284;28;20115;-62
2023/09/29 06:48:15;;;;;;;3.15;2.63;;;;;;;;;;8276040;28;20035;-63
2023/09/29 06:52:16;;;;;;;7.18;3.53;;;;;;;;;;8284319;28;20032;-62
2023/09/29 06:56:16;;;;;;;7.72;3.53;;;;;;;;;;8281986;28;20098;-63
2023/09/29 07:00:17;;;;;;;8.38;3.67;;;;;;;;;;8282215;28;20030;-63
2023/09/29 07:04:18;;;;;;;5.72;3.05;;;;;;;;;;8277308;28;20601;-62
2023/09/29 07:08:18;;;;;;;8.60;2.78;;;;;;;;;;8275878;28;20931;-63
2023/09/29 07:12:18;;;;;;;4.57;2.50;;;;;;;;;;8278045;28;20033;-64
2023/09/29 07:16:19;;;;;;;4.75;2.75;;;;;;;;;;8279108;28;20660;-62
2023/09/29 07:20:19;;;;;;;4.57;2.70;;;;;;;;;;8281647;28;20040;-63
2023/09/29 07:24:19;;;;;;;3.77;2.77;;;;;;;;;;8285914;28;20017;-63
2023/09/29 07:28:20;;;;;;;4.38;2.40;;;;;;;;;;8282861;28;20033;-63
2023/09/29 07:32:21;;;;;;;4.00;2.50;;;;;;;;;;8282887;28;20037;-63
2023/09/29 07:36:21;;;;;;;6.05;2.35;;;;;;;;;;8283265;28;20028;-64
2023/09/29 07:40:21;;;;;;;7.13;2.60;;;;;;;;;;8283200;28;20071;-63
2023/09/29 07:44:22;;;;;;;5.28;2.53;;;;;;;;;;8287834;28;20021;-63
2023/09/29 07:48:23;;;;;;;6.53;2.80;;;;;;;;;;8286171;28;20629;-64
2023/09/29 07:52:27;;;;;;;2.25;2.05;;;;;;;;;;8283532;28;20036;-63
2023/09/29 07:56:27;;;;;;;4.90;2.50;;;;;;;;;;8285569;28;20061;-63
2023/09/29 08:00:28;;;;;;;4.68;2.55;;;;;;;;;;8283949;28;20028;-63
2023/09/29 08:04:28;;;;;;;3.90;2.40;;;;;;;;;;8291356;28;20034;-63
2023/09/29 08:08:28;;;;;;;4.15;2.10;;;;;;;;;;8286293;28;21235;-63
2023/09/29 08:12:29;;;;;;;4.57;2.60;;;;;;;;;;8289174;28;20039;-63
2023/09/29 08:16:29;;;;;;;3.05;2.72;;;;;;;;;;8291401;28;20044;-64
2023/09/29 08:20:29;;;;;;;4.38;2.50;;;;;;;;;;8286961;28;20033;-63
2023/09/29 08:24:30;;;;;;;3.57;2.30;;;;;;;;;;8293473;28;20097;-63
2023/09/29 08:28:30;;;;;;;2.85;2.30;;;;;;;;;;8293546;28;20272;-64
2023/09/29 08:32:30;;;;;;;5.15;2.30;;;;;;;;;;8284908;28;20041;-63
2023/09/29 08:36:30;;;;;;;2.40;2.17;;;;;;;;;;8287208;28;20294;-63
2023/09/29 08:40:36;;;;;;;3.45;2.47;;;;;;;;;;8290899;28;20021;-63
2023/09/29 08:44:38;;;;;;;6.80;2.55;;;;;;;;;;8293605;28;20036;-63
2023/09/29 08:48:42;;;;;;;4.00;2.33;;;;;;;;;;8288705;28;20056;-64
2023/09/29 08:52:46;;;;;;;6.10;2.22;;;;;;;;;;8292823;28;20033;-63
2023/09/29 08:56:48;;;;;;;11.55;2.88;;;;;;;;;;8289398;28;20113;-64
2023/09/29 09:00:48;;;;;;;3.65;2.50;;;;;;;;;;8288539;28;20032;-63
2023/09/29 09:04:48;;;;;;;4.72;2.42;;;;;;;;;;8290654;28;20092;-64
2023/09/29 09:08:50;;;;;;;4.72;2.50;;;;;;;;;;8289106;28;20040;-63
2023/09/29 09:12:50;;;;;;;9.73;2.63;;;;;;;;;;8286186;28;20028;-63
2023/09/29 09:16:50;;;;;;;2.50;2.30;;;;;;;;;;8286264;28;20029;-63
2023/09/29 09:20:51;;;;;;;4.97;2.63;;;;;;;;;;8282942;28;20052;-63
2023/09/29 09:25:02;;;;;;;5.50;2.47;;;;;;;;;;8286220;28;20565;-63
2023/09/29 09:29:05;;;;;;;4.13;2.50;;;;;;;;;;8287874;28;20056;-63
2023/09/29 09:33:06;;;;;;;3.28;2.50;;;;;;;;;;8284052;28;20561;-64
2023/09/29 09:37:06;;;;;;;3.55;2.53;;;;;;;;;;8280847;28;20025;-63
2023/09/29 09:41:08;;;;;;;4.35;2.60;;;;;;;;;;8287738;28;20060;-63
2023/09/29 09:45:08;;;;;;;7.15;2.50;;;;;;;;;;8286302;28;20551;-63
2023/09/29 09:49:13;;;;;;;4.22;2.47;;;;;;;;;;8287562;28;20068;-63
2023/09/29 09:53:15;;;;;;;4.38;2.60;;;;;;;;;;8283679;28;20041;-64
2023/09/29 09:57:22;;;;;;;7.68;2.95;;;;;;;;;;8285744;28;20036;-63
2023/09/29 10:01:23;;;;;;;3.10;2.50;;;;;;;;;;8282970;28;20132;-63
2023/09/29 10:05:25;;;;;;;4.32;2.70;;;;;;;;;;8282227;28;20493;-62
2023/09/29 10:09:25;;;;;;;4.40;2.63;;;;;;;;;;8285319;28;20144;-62
2023/09/29 10:13:33;;;;;;;6.22;2.80;;;;;;;;;;8284595;28;20436;-62
2023/09/29 10:17:38;;;;;;;3.28;2.75;;;;;;;;;;8282593;28;20033;-62
2023/09/29 10:21:42;;;;;;;6.55;2.70;;;;;;;;;;8285649;28;20021;-62
2023/09/29 10:25:44;;;;;;;6.85;2.78;;;;;;;;;;8285748;28;20040;-62
2023/09/29 10:29:49;;;;;;;5.18;2.42;;;;;;;;;;8286327;28;20474;-62
2023/09/29 10:33:53;;;;;;;3.42;2.30;;;;;;;;;;8283218;28;20038;-62
2023/09/29 10:37:58;;;;;;;4.18;2.28;;;;;;;;;;8286639;28;20056;-66
2023/09/29 10:41:59;;;;;;;3.75;2.40;;;;;;;;;;8285250;28;22202;-62
2023/09/29 10:46:05;;;;;;;5.28;2.58;;;;;;;;;;8284938;28;20064;-63
2023/09/29 10:50:07;;;;;;;7.43;2.88;;;;;;;;;;8281943;28;20127;-63
2023/09/29 10:54:07;;;;;;;4.35;2.72;;;;;;;;;;8287987;28;20024;-61
2023/09/29 10:58:07;;;;;;;3.53;2.42;;;;;;;;;;8286418;28;20012;-61
2023/09/29 11:02:11;;;;;;;2.83;2.28;;;;;;;;;;8280609;28;20808;-61
2023/09/29 11:06:18;;;;;;;4.93;2.40;;;;;;;;;;8284900;28;20052;-61
2023/09/29 11:10:19;;;;;;;4.80;2.88;;;;;;;;;;8284524;28;20449;-61
2023/09/29 11:14:19;;;;;;;4.55;2.65;;;;;;;;;;8285159;28;20043;-62
2023/09/29 11:18:25;;;;;;;5.18;2.30;;;;;;;;;;8283822;28;20495;-62
2023/09/29 11:22:26;;;;;;;4.55;2.30;;;;;;;;;;8282494;28;20014;-61
2023/09/29 11:26:26;;;;;;;5.32;2.17;;;;;;;;;;8285026;28;20028;-61
2023/09/29 11:30:27;;;;;;;5.70;2.57;;;;;;;;;;8281444;28;20110;-62
2023/09/29 11:34:29;;;;;;;7.17;2.37;;;;;;;;;;8281919;28;21566;-62
2023/09/29 11:38:29;;;;;;;3.95;2.45;;;;;;;;;;8287768;28;20283;-62
2023/09/29 11:42:30;;;;;;;5.27;2.33;;;;;;;;;;8284019;28;20038;-62
2023/09/29 11:46:30;;;;;;;9.35;2.28;;;;;;;;;;8285418;28;20184;-62
2023/09/29 11:50:31;;;;;;;9.48;2.30;;;;;;;;;;8282704;28;20069;-62
2023/09/29 11:54:31;;;;;;;6.47;2.58;;;;;;;;;;8281935;28;20013;-61
2023/09/29 11:58:31;;;;;;;6.80;2.20;;;;;;;;;;8286620;28;20083;-62
2023/09/29 12:02:32;;;;;;;3.85;2.30;;;;;;;;;;8282939;28;20029;-61
2023/09/29 12:06:32;;;;;;;13.18;2.13;;;;;;;;;;8282197;28;20032;-61
2023/09/29 12:10:32;;;;;;;8.93;2.50;;;;;;;;;;8286664;28;20029;-62
2023/09/29 12:14:32;;;;;;;6.40;2.70;;;;;;;;;;8286551;28;20120;-62
2023/09/29 12:18:33;;;;;;;5.57;3.00;;;;;;;;;;8285746;28;20037;-61
2023/09/29 12:22:34;;;;;;;6.68;3.00;;;;;;;;;;8284157;28;20128;-62
2023/09/29 12:26:34;;;;;;;8.38;3.67;;;;;;;;;;8283022;28;21121;-61
2023/09/29 12:30:35;;;;;;;10.73;4.20;;;;;;;;;;8284386;28;20037;-61
2023/09/29 12:34:35;;;;;;;9.55;3.90;;;;;;;;;;8282479;28;20276;-62
2023/09/29 12:38:35;;;;;;;9.75;3.80;;;;;;;;;;8285701;28;20028;-61
2023/09/29 12:42:36;;;;;;;12.38;4.55;;;;;;;;;;8283480;28;20037;-62
2023/09/29 12:46:38;;;;;;;11.65;5.32;;;;;;;;;;8283963;28;20044;-61
2023/09/29 12:50:40;;;;;;;14.77;5.63;;;;;;;;;;8288091;28;20021;-65
2023/09/29 12:54:40;;;;;;;12.30;5.97;;;;;;;;;;8289636;28;20031;-63
2023/09/29 12:58:40;;;;;;;11.50;5.90;;;;;;;;;;8288525;28;20122;-62
2023/09/29 13:02:41;;;;;;;14.30;6.17;;;;;;;;;;8285777;28;20029;-64
2023/09/29 13:06:41;;;;;;;13.00;5.78;;;;;;;;;;8286213;28;20053;-62
2023/09/29 13:10:41;;;;;;;14.25;6.55;;;;;;;;;;8288320;28;20032;-62
2023/09/29 13:14:41;;;;;;;13.63;6.88;;;;;;;;;;8290517;28;20021;-62
2023/09/29 13:18:41;;;;;;;19.63;8.00;;;;;;;;;;8286469;28;20051;-63
2023/09/29 13:22:42;;;;;;;18.90;7.72;;;;;;;;;;8284606;28;20048;-62
2023/09/29 13:26:42;;;;;;;23.90;9.97;;;;;;;;;;8291327;28;20024;-62
2023/09/29 13:30:42;;;;;;;25.50;11.10;;;;;;;;;;8288794;28;20076;-62
2023/09/29 13:34:42;;;;;;;26.93;13.20;;;;;;;;;;8289455;28;20805;-62
2023/09/29 13:38:43;;;;;;;28.35;13.10;;;;;;;;;;8288790;28;20695;-62
2023/09/29 13:42:44;;;;;;;31.58;12.88;;;;;;;;;;8289789;28;20030;-62
2023/09/29 13:46:46;;;;;;;34.50;13.65;;;;;;;;;;8284532;28;20049;-62
2023/09/29 13:50:47;;;;;;;32.25;14.57;;;;;;;;;;8290506;28;20379;-62
2023/09/29 13:54:47;;;;;;;33.20;14.13;;;;;;;;;;8284275;28;20021;-62
2023/09/29 13:58:48;;;;;;;35.10;15.82;;;;;;;;;;8288134;28;20024;-62
2023/09/29 14:02:49;;;;;;;35.35;17.33;;;;;;;;;;8284267;28;20997;-62
2023/09/29 14:06:51;;;;;;;35.90;17.67;;;;;;;;;;8287662;28;20614;-61
2023/09/29 14:10:51;;;;;;;34.42;16.63;;;;;;;;;;8285318;28;20037;-62
2023/09/29 14:14:51;;;;;;;36.35;18.05;;;;;;;;;;8287998;28;20035;-61
2023/09/29 14:18:52;;;;;;;36.38;17.00;;;;;;;;;;8287932;28;20059;-62
2023/09/29 14:22:52;;;;;;;36.80;16.70;;;;;;;;;;8286702;28;20061;-61
2023/09/29 14:26:52;;;;;;;36.13;15.95;;;;;;;;;;8285954;28;20100;-61
2023/09/29 14:30:52;;;;;;;30.20;14.95;;;;;;;;;;8281801;28;20821;-62
2023/09/29 14:34:52;;;;;;;27.75;14.30;;;;;;;;;;8286378;28;20457;-61
2023/09/29 14:38:53;;;;;;;27.00;12.40;;;;;;;;;;8283173;28;20033;-62
2023/09/29 14:42:54;;;;;;;27.05;12.55;;;;;;;;;;8285876;28;20276;-62
2023/09/29 14:46:54;;;;;;;31.20;12.50;;;;;;;;;;8288075;28;20033;-62
2023/09/29 14:50:54;;;;;;;28.57;12.43;;;;;;;;;;8284850;28;20044;-62
2023/09/29 14:54:56;;;;;;;22.85;11.18;;;;;;;;;;8285357;28;20292;-63
2023/09/29 14:58:56;;;;;;;27.33;11.65;;;;;;;;;;8285005;28;20444;-62
2023/09/29 15:02:58;;;;;;;26.42;11.80;;;;;;;;;;8282028;28;20099;-63
2023/09/29 15:06:59;;;;;;;25.48;10.98;;;;;;;;;;8283596;28;20489;-62
2023/09/29 15:10:59;;;;;;;22.00;10.75;;;;;;;;;;8287191;28;20053;-63
2023/09/29 15:15:00;;;;;;;22.53;11.50;;;;;;;;;;8285075;28;20473;-61
2023/09/29 15:19:03;;;;;;;24.42;10.93;;;;;;;;;;8282061;28;20288;-62
2023/09/29 15:23:03;;;;;;;24.77;10.93;;;;;;;;;;8281176;28;20041;-61
2023/09/29 15:27:03;;;;;;;24.00;9.97;;;;;;;;;;8265222;28;20029;-62
2023/09/29 15:31:04;;;;;;;24.08;10.65;;;;;;;;;;8283264;28;20034;-62
2023/09/29 15:35:04;;;;;;;23.95;9.75;;;;;;;;;;8279796;28;20021;-62
2023/09/29 15:39:09;;;;;;;19.08;9.75;;;;;;;;;;8281483;28;20441;-61
2023/09/29 15:43:09;;;;;;;21.80;9.05;;;;;;;;;;8282317;28;20426;-61
2023/09/29 15:47:09;;;;;;;28.23;9.65;;;;;;;;;;8278941;28;20033;-61
2023/09/29 15:51:10;;;;;;;21.57;9.13;;;;;;;;;;8283022;28;20877;-61
2023/09/29 15:55:10;;;;;;;17.75;9.27;;;;;;;;;;8284499;28;20280;-62
2023/09/29 15:59:11;;;;;;;18.30;8.52;;;;;;;;;;8284158;28;20796;-62
2023/09/29 16:03:11;;;;;;;24.43;9.10;;;;;;;;;;8282309;28;20040;-62
2023/09/29 16:07:11;;;;;;;16.87;7.97;;;;;;;;;;8283791;28;20106;-61
2023/09/29 16:11:11;;;;;;;19.58;8.05;;;;;;;;;;8283617;28;20037;-62
2023/09/29 16:15:12;;;;;;;17.35;8.10;;;;;;;;;;8283684;28;20021;-62
2023/09/29 16:19:12;;;;;;;19.67;8.25;;;;;;;;;;8282868;28;20455;-62
2023/09/29 16:23:12;;;;;;;17.37;7.60;;;;;;;;;;8284174;28;20775;-61
2023/09/29 16:27:12;;;;;;;13.25;6.40;;;;;;;;;;8290410;28;20416;-61
2023/09/29 16:31:13;;;;;;;15.63;6.60;;;;;;;;;;8289068;28;20146;-62
2023/09/29 16:35:14;;;;;;;14.02;5.72;;;;;;;;;;8288433;28;20693;-63
2023/09/29 16:39:14;;;;;;;15.25;6.13;;;;;;;;;;8288935;28;20136;-62
2023/09/29 16:43:15;;;;;;;16.77;6.40;;;;;;;;;;8291559;28;20021;-62
2023/09/29 16:47:15;;;;;;;16.48;6.13;;;;;;;;;;8287095;28;20268;-62
2023/09/29 16:51:16;;;;;;;13.10;5.53;;;;;;;;;;8287009;28;20060;-62
2023/09/29 16:55:17;;;;;;;11.75;5.35;;;;;;;;;;8294236;28;20029;-62
2023/09/29 16:59:17;;;;;;;10.30;4.80;;;;;;;;;;8289459;28;20037;-62
2023/09/29 17:03:18;;;;;;;9.82;4.60;;;;;;;;;;8281449;28;20082;-62
2023/09/29 17:07:18;;;;;;;10.30;4.53;;;;;;;;;;8285738;28;20136;-63
2023/09/29 17:11:18;;;;;;;8.73;4.00;;;;;;;;;;8284220;28;20037;-63
2023/09/29 17:15:18;;;;;;;6.43;3.07;;;;;;;;;;8287157;28;20032;-62
2023/09/29 17:19:19;;;;;;;6.68;2.95;;;;;;;;;;8284288;28;21021;-63
2023/09/29 17:23:19;;;;;;;7.53;3.37;;;;;;;;;;8287205;28;20024;-62
2023/09/29 17:27:20;;;;;;;6.47;2.70;;;;;;;;;;8282512;28;20136;-63
2023/09/29 17:31:21;;;;;;;7.38;3.05;;;;;;;;;;8280123;28;20060;-62
2023/09/29 17:35:21;;;;;;;7.55;3.08;;;;;;;;;;8284397;28;20026;-62
2023/09/29 17:39:22;;;;;;;7.32;2.85;;;;;;;;;;8282745;28;20017;-62
2023/09/29 17:43:22;;;;;;;8.27;3.25;;;;;;;;;;8285679;28;20075;-62
2023/09/29 17:47:22;;;;;;;7.65;3.15;;;;;;;;;;8279708;28;20033;-61
2023/09/29 17:51:22;;;;;;;7.43;3.03;;;;;;;;;;8282335;28;20057;-61
2023/09/29 17:55:23;;;;;;;6.28;3.10;;;;;;;;;;8281931;28;20025;-62
2023/09/29 17:59:23;;;;;;;8.67;3.10;;;;;;;;;;8283965;28;20021;-62
2023/09/29 18:03:23;;;;;;;4.50;2.43;;;;;;;;;;8283392;28;20960;-62
2023/09/29 18:07:23;;;;;;;5.68;2.88;;;;;;;;;;8283632;28;20343;-62
2023/09/29 18:11:24;;;;;;;5.40;2.60;;;;;;;;;;8282577;28;20171;-62
2023/09/29 18:15:24;;;;;;;5.30;2.72;;;;;;;;;;8283180;28;20362;-62
2023/09/29 18:19:24;;;;;;;5.45;3.05;;;;;;;;;;8281293;28;20043;-63
2023/09/29 18:23:25;;;;;;;6.03;2.70;;;;;;;;;;8282107;28;20091;-63
2023/09/29 18:27:25;;;;;;;4.97;2.73;;;;;;;;;;8285772;28;20745;-65
2023/09/29 18:31:25;;;;;;;5.10;2.58;;;;;;;;;;8283607;28;20310;-62
2023/09/29 18:35:26;;;;;;;5.95;2.90;;;;;;;;;;8283747;28;20390;-62
2023/09/29 18:39:26;;;;;;;6.22;2.58;;;;;;;;;;8284466;28;20029;-61
2023/09/29 18:43:26;;;;;;;3.75;2.20;;;;;;;;;;8281156;28;20044;-61
2023/09/29 18:47:26;;;;;;;4.40;2.13;;;;;;;;;;8280955;28;20037;-62
2023/09/29 18:51:27;;;;;;;3.27;2.00;;;;;;;;;;8282208;28;20029;-61
2023/09/29 18:55:27;;;;;;;4.72;2.35;;;;;;;;;;8282418;28;20356;-62
2023/09/29 18:59:28;;;;;;;3.90;2.30;;;;;;;;;;8284136;28;20056;-61
2023/09/29 19:03:28;;;;;;;4.32;2.40;;;;;;;;;;8280631;28;20602;-61
2023/09/29 19:07:29;;;;;;;5.32;2.40;;;;;;;;;;8284125;28;20127;-61
2023/09/29 19:11:29;;;;;;;4.43;2.05;;;;;;;;;;8283925;28;20045;-61
2023/09/29 19:15:30;;;;;;;4.28;2.13;;;;;;;;;;8284269;28;20044;-61
2023/09/29 19:19:33;;;;;;;4.15;2.20;;;;;;;;;;8284225;28;20173;-62
2023/09/29 19:23:33;;;;;;;3.55;1.88;;;;;;;;;;8287082;28;20599;-62
2023/09/29 19:27:34;;;;;;;4.18;2.25;;;;;;;;;;8283197;28;20362;-61
2023/09/29 19:31:35;;;;;;;3.25;1.90;;;;;;;;;;8276356;28;20075;-61
2023/09/29 19:35:35;;;;;;;3.60;1.67;;;;;;;;;;8278740;28;20029;-61
2023/09/29 19:39:36;;;;;;;2.90;1.55;;;;;;;;;;8281593;28;20060;-61
2023/09/29 19:43:36;;;;;;;3.37;1.50;;;;;;;;;;8279574;28;20029;-62
2023/09/29 19:47:37;;;;;;;5.07;1.35;;;;;;;;;;8278196;28;20275;-62
2023/09/29 19:51:37;;;;;;;1.85;1.17;;;;;;;;;;8281945;28;20041;-62
2023/09/29 19:55:38;;;;;;;1.88;0.80;;;;;;;;;;8275633;28;23619;-62
2023/09/29 19:59:38;;;;;;;2.72;1.02;;;;;;;;;;8285649;28;20155;-62
2023/09/29 20:03:38;;;;;;;0.93;0.80;;;;;;;;;;8286400;28;20048;-62
2023/09/29 20:07:39;;;;;;;4.27;0.60;;;;;;;;;;8288947;28;20048;-62
2023/09/29 20:11:39;;;;;;;2.42;0.95;;;;;;;;;;8286960;28;20020;-62
2023/09/29 20:15:39;;;;;;;1.10;0.75;;;;;;;;;;8284203;28;20044;-62
2023/09/29 20:19:40;;;;;;;1.42;0.90;;;;;;;;;;8281884;28;20044;-61
2023/09/29 20:23:40;;;;;;;1.08;0.93;;;;;;;;;;8284240;28;20107;-61
2023/09/29 20:27:41;;;;;;;2.45;1.05;;;;;;;;;;8284507;28;20083;-62
2023/09/29 20:31:41;;;;;;;3.30;1.00;;;;;;;;;;8287693;28;20033;-61
2023/09/29 20:35:41;;;;;;;1.98;0.95;;;;;;;;;;8293044;28;20279;-61
2023/09/29 20:39:41;;;;;;;1.13;1.00;;;;;;;;;;8289673;28;20028;-62
2023/09/29 20:43:43;;;;;;;0.80;0.80;;;;;;;;;;8290653;28;20030;-62
2023/09/29 20:47:44;;;;;;;0.90;0.90;;;;;;;;;;8285778;28;20044;-63
2023/09/29 20:51:44;;;;;;;1.17;1.00;;;;;;;;;;8290936;28;20029;-62
2023/09/29 20:55:44;;;;;;;1.38;0.95;;;;;;;;;;8289917;28;21155;-62
2023/09/29 20:59:44;;;;;;;1.90;1.20;;;;;;;;;;8289840;28;20112;-62
2023/09/29 21:03:45;;;;;;;1.63;1.00;;;;;;;;;;8287950;28;20095;-62
2023/09/29 21:07:45;;;;;;;2.80;1.20;;;;;;;;;;8291753;28;20025;-62
2023/09/29 21:11:45;;;;;;;1.33;1.15;;;;;;;;;;8289756;28;20036;-62
2023/09/29 21:15:45;;;;;;;1.67;1.10;;;;;;;;;;8287234;28;20453;-60
2023/09/29 21:19:46;;;;;;;2.80;1.20;;;;;;;;;;8272343;28;20410;-61
2023/09/29 21:23:46;;;;;;;2.73;1.40;;;;;;;;;;8282489;28;20017;-61
2023/09/29 21:27:46;;;;;;;2.85;1.45;;;;;;;;;;8282201;28;20308;-61
2023/09/29 21:31:51;;;;;;;2.75;1.50;;;;;;;;;;8282465;28;20032;-61
2023/09/29 21:35:53;;;;;;;3.60;1.20;;;;;;;;;;8283938;28;20036;-62
2023/09/29 21:39:54;;;;;;;2.15;1.40;;;;;;;;;;8283482;28;20554;-62
2023/09/29 21:43:54;;;;;;;2.08;1.42;;;;;;;;;;8284320;28;20029;-62
2023/09/29 21:47:54;;;;;;;3.35;1.70;;;;;;;;;;8280088;28;20167;-61
2023/09/29 21:51:54;;;;;;;3.42;1.50;;;;;;;;;;8280661;28;20035;-61
2023/09/29 21:55:56;;;;;;;3.85;1.70;;;;;;;;;;8277969;28;20037;-61
2023/09/29 21:59:56;;;;;;;5.18;1.92;;;;;;;;;;8275334;28;22247;-62
2023/09/29 22:03:57;;;;;;;3.37;1.80;;;;;;;;;;8274132;28;20069;-62
2023/09/29 22:07:57;;;;;;;3.63;1.63;;;;;;;;;;8282097;28;20955;-62
2023/09/29 22:11:57;;;;;;;4.75;1.55;;;;;;;;;;8279437;28;20851;-61
2023/09/29 22:15:58;;;;;;;3.97;1.92;;;;;;;;;;8283268;28;20053;-61
2023/09/29 22:19:58;;;;;;;2.38;1.63;;;;;;;;;;8277059;28;20600;-62
2023/09/29 22:23:58;;;;;;;3.38;1.90;;;;;;;;;;8280723;28;20037;-62
2023/09/29 22:27:59;;;;;;;3.50;1.70;;;;;;;;;;8278383;28;20049;-61
2023/09/29 22:31:59;;;;;;;3.57;1.80;;;;;;;;;;8277709;28;20044;-61
2023/09/29 22:36:00;;;;;;;3.80;1.83;;;;;;;;;;8277769;28;20272;-62
2023/09/29 22:40:01;;;;;;;4.57;1.95;;;;;;;;;;8277467;28;20052;-65
2023/09/29 22:44:01;;;;;;;3.63;1.63;;;;;;;;;;8279793;28;20032;-62
2023/09/29 22:48:01;;;;;;;5.10;1.90;;;;;;;;;;8276619;28;20071;-61
2023/09/29 22:52:02;;;;;;;4.53;1.70;;;;;;;;;;8278745;28;20064;-62
2023/09/29 22:56:07;;;;;;;3.55;1.60;;;;;;;;;;8226304;28;20038;-61
2023/09/29 23:00:11;;;;;;;3.63;1.88;;;;;;;;;;8194918;28;20442;-63
2023/09/29 23:04:11;;;;;;;6.18;1.92;;;;;;;;;;8212978;28;20026;-62
2023/09/29 23:08:12;;;;;;;5.00;1.77;;;;;;;;;;8214387;28;20136;-62
2023/09/29 23:12:14;;;;;;;3.42;1.60;;;;;;;;;;8212156;28;20029;-61
2023/09/29 23:16:14;;;;;;;4.68;2.20;;;;;;;;;;8215360;28;20924;-62
2023/09/29 23:20:17;;;;;;;3.95;2.10;;;;;;;;;;8213660;28;20044;-62
2023/09/29 23:24:18;;;;;;;4.63;2.00;;;;;;;;;;8216702;28;20025;-62
2023/09/29 23:28:18;;;;;;;3.13;2.00;;;;;;;;;;8215159;28;20023;-62
2023/09/29 23:32:18;;;;;;;2.42;1.80;;;;;;;;;;8215040;28;20034;-62
2023/09/29 23:36:19;;;;;;;2.55;1.75;;;;;;;;;;8215422;28;20026;-61
2023/09/29 23:40:19;;;;;;;4.75;1.92;;;;;;;;;;8213019;28;20201;-61
2023/09/29 23:44:20;;;;;;;6.63;2.55;;;;;;;;;;8215501;28;20018;-61
2023/09/29 23:48:20;;;;;;;4.27;1.87;;;;;;;;;;8211126;28;20065;-62
2023/09/29 23:52:20;;;;;;;3.47;2.10;;;;;;;;;;8213236;28;20156;-61
2023/09/29 23:56:21;;;;;;;5.90;2.57;;;;;;;;;;8214480;28;20282;-62
